Terminal Aerodrome Forecast
Issued by NWS

Home | Current Version | Previous Version | Text Only | Print | Product List | Glossary On
Versions: 1 2 3 4 5 6 7 8 9 10 11 12 13 14 15
000
FTUS43 KPAH 261439 AAA
TAFCGI
TAF AMD
KCGI 261439Z 2615/2712 35013G20KT 6SM -RA BKN025 OVC050
     FM261800 36010KT P6SM SCT012 BKN025
     FM270000 36004KT P6SM SCT025 BKN100=

USA.gov is the U.S. government's official web portal to all federal, state and local government web resources and services.